createdAt,value
2019-01-24T00:00:35.324Z,62.50
2019-01-24T00:01:36.357Z,62.70
2019-01-24T00:02:37.380Z,62.10
2019-01-24T00:03:38.408Z,62.30
2019-01-24T00:04:39.441Z,62.30
2019-01-24T00:05:40.457Z,62.40
2019-01-24T00:06:41.481Z,62.00
2019-01-24T00:07:42.504Z,62.60
2019-01-24T00:08:43.524Z,62.50
2019-01-24T00:09:44.649Z,62.90
2019-01-24T00:10:45.860Z,62.50
2019-01-24T00:11:46.892Z,62.50
2019-01-24T00:12:47.916Z,63.00
2019-01-24T00:13:48.933Z,63.20
2019-01-24T00:14:49.941Z,63.00
2019-01-24T00:15:50.976Z,63.00
2019-01-24T00:16:51.992Z,62.60
2019-01-24T00:17:53.064Z,64.10
2019-01-24T00:18:54.057Z,63.20
2019-01-24T00:19:55.069Z,63.20
2019-01-24T00:20:56.088Z,62.80
2019-01-24T00:21:57.119Z,62.80
2019-01-24T00:22:58.150Z,62.60
2019-01-24T00:23:59.167Z,62.70
2019-01-24T00:25:00.229Z,62.40
2019-01-24T00:26:01.335Z,62.50
2019-01-24T00:27:02.377Z,62.40
2019-01-24T00:28:03.408Z,62.50
2019-01-24T00:29:04.428Z,62.30
2019-01-24T00:30:11.294Z,62.20
2019-01-24T00:31:12.324Z,62.20
2019-01-24T00:32:13.356Z,62.10
2019-01-24T00:33:14.380Z,62.20
2019-01-24T00:34:15.411Z,62.10
2019-01-24T00:35:16.436Z,62.30
2019-01-24T00:36:17.463Z,62.00
2019-01-24T00:37:18.509Z,61.80
2019-01-24T00:38:19.536Z,61.90
2019-01-24T00:39:20.563Z,61.90
2019-01-24T00:40:21.821Z,61.80
2019-01-24T00:41:22.827Z,62.00
2019-01-24T00:42:23.860Z,61.70
2019-01-24T00:43:24.885Z,61.50
2019-01-24T00:44:25.921Z,61.70
2019-01-24T00:45:26.942Z,61.70
2019-01-24T00:46:27.957Z,61.60
2019-01-24T00:47:28.992Z,61.30
2019-01-24T00:48:30.028Z,61.50
2019-01-24T00:49:31.060Z,61.00
2019-01-24T00:50:32.072Z,61.30
2019-01-24T00:51:33.104Z,61.00
2019-01-24T00:52:34.157Z,60.90
2019-01-24T00:53:35.172Z,60.80
2019-01-24T00:54:36.218Z,61.10
2019-01-24T00:55:37.233Z,61.00
2019-01-24T00:56:38.268Z,60.90
2019-01-24T00:57:39.299Z,60.80
2019-01-24T00:58:40.320Z,60.30
2019-01-24T00:59:41.349Z,60.50
2019-01-24T01:00:42.366Z,60.50
2019-01-24T01:01:43.393Z,60.80
2019-01-24T01:02:44.629Z,60.90
2019-01-24T01:03:45.645Z,61.20
2019-01-24T01:04:46.676Z,60.80
2019-01-24T01:05:47.821Z,60.70
2019-01-24T01:06:48.959Z,60.40
2019-01-24T01:07:49.976Z,60.00
2019-01-24T01:08:50.999Z,60.60
2019-01-24T01:09:52.189Z,60.20
2019-01-24T01:10:53.363Z,60.70
2019-01-24T01:11:54.465Z,60.50
2019-01-24T01:12:55.532Z,60.10
2019-01-24T01:13:56.921Z,60.80
2019-01-24T01:14:58.017Z,60.70
2019-01-24T01:15:59.136Z,60.20
2019-01-24T01:17:00.260Z,60.30
2019-01-24T01:18:01.288Z,60.70
2019-01-24T01:19:02.416Z,60.90
2019-01-24T01:20:07.240Z,60.90
2019-01-24T01:21:08.261Z,62.10
2019-01-24T01:22:09.396Z,61.30
2019-01-24T01:23:10.433Z,60.90
2019-01-24T01:24:11.463Z,61.20
2019-01-24T01:25:12.695Z,61.20
2019-01-24T01:26:13.829Z,61.50
2019-01-24T01:27:14.844Z,61.50
2019-01-24T01:28:15.881Z,61.60
2019-01-24T01:29:16.907Z,61.00
2019-01-24T01:30:20.030Z,61.40
2019-01-24T01:31:21.048Z,61.40
2019-01-24T01:32:22.077Z,61.70
2019-01-24T01:33:23.116Z,61.50
2019-01-24T01:34:24.146Z,61.70
2019-01-24T01:35:25.192Z,61.50
2019-01-24T01:36:26.220Z,62.00
2019-01-24T01:37:27.241Z,61.70
2019-01-24T01:38:28.267Z,61.90
2019-01-24T01:39:29.288Z,61.80
2019-01-24T01:40:30.321Z,62.10
2019-01-24T01:41:31.339Z,62.00
2019-01-24T01:42:32.356Z,62.10
2019-01-24T01:43:33.385Z,62.10
2019-01-24T01:44:34.417Z,62.00
2019-01-24T01:45:35.509Z,62.10
2019-01-24T01:46:36.580Z,62.30
2019-01-24T01:47:37.611Z,62.10
2019-01-24T01:48:38.711Z,62.30
2019-01-24T01:49:39.796Z,62.10
2019-01-24T01:50:40.812Z,61.90
2019-01-24T01:51:41.835Z,62.10
2019-01-24T01:52:42.863Z,62.00
2019-01-24T01:53:43.897Z,62.00
2019-01-24T01:54:44.920Z,62.30
2019-01-24T01:55:45.944Z,62.30
2019-01-24T01:56:46.961Z,62.10
2019-01-24T01:57:47.980Z,62.60
2019-01-24T01:58:49.013Z,62.00
2019-01-24T01:59:50.036Z,61.90
2019-01-24T02:00:51.067Z,61.60
2019-01-24T02:01:52.130Z,62.00
2019-01-24T02:02:53.134Z,61.90
2019-01-24T02:03:54.166Z,61.90
2019-01-24T02:04:55.216Z,61.50
2019-01-24T02:05:56.301Z,61.80
2019-01-24T02:06:57.319Z,61.70
2019-01-24T02:07:58.335Z,61.80
2019-01-24T02:08:59.377Z,61.80
2019-01-24T02:10:00.384Z,61.90
2019-01-24T02:11:01.406Z,62.10
2019-01-24T02:12:02.420Z,61.90
2019-01-24T02:13:03.540Z,62.00
2019-01-24T02:14:04.760Z,62.00
2019-01-24T02:15:08.276Z,62.10
2019-01-24T02:16:09.296Z,62.40
2019-01-24T02:17:10.317Z,61.80
2019-01-24T02:18:11.547Z,61.90
2019-01-24T02:19:12.564Z,62.10
2019-01-24T02:20:15.988Z,62.10
2019-01-24T02:21:17.030Z,62.20
2019-01-24T02:22:18.144Z,62.20
2019-01-24T02:23:19.163Z,62.40
2019-01-24T02:24:20.206Z,62.30
2019-01-24T02:25:21.332Z,62.20
2019-01-24T02:26:22.354Z,61.90
2019-01-24T02:27:23.371Z,61.90
2019-01-24T02:28:24.393Z,62.30
2019-01-24T02:29:25.427Z,62.20
2019-01-24T02:30:28.766Z,62.30
2019-01-24T02:31:29.790Z,62.60
2019-01-24T02:32:30.818Z,62.70
2019-01-24T02:33:31.855Z,62.70
2019-01-24T02:34:32.884Z,62.70
2019-01-24T02:35:33.917Z,62.60
2019-01-24T02:36:35.017Z,62.50
2019-01-24T02:37:36.142Z,62.20
2019-01-24T02:38:37.165Z,62.30
2019-01-24T02:39:38.199Z,62.20
2019-01-24T02:40:39.224Z,61.90
2019-01-24T02:41:40.244Z,62.00
2019-01-24T02:42:41.275Z,61.60
2019-01-24T02:43:42.283Z,61.60
2019-01-24T02:44:43.316Z,61.60
2019-01-24T02:45:44.448Z,62.00
2019-01-24T02:46:45.480Z,61.90
2019-01-24T02:47:46.713Z,62.30
2019-01-24T02:48:47.729Z,61.90
2019-01-24T02:49:48.756Z,62.20
2019-01-24T02:50:49.791Z,62.10
2019-01-24T02:51:50.808Z,62.00
2019-01-24T02:52:51.836Z,61.60
2019-01-24T02:53:52.864Z,61.80
2019-01-24T02:54:53.896Z,61.60
2019-01-24T02:55:54.920Z,61.10
2019-01-24T02:56:55.933Z,61.60
2019-01-24T02:57:56.944Z,61.50
2019-01-24T02:58:57.998Z,60.90
2019-01-24T02:59:59.033Z,60.90
2019-01-24T03:01:00.054Z,60.80
2019-01-24T03:02:01.059Z,61.10
2019-01-24T03:03:02.078Z,61.10
2019-01-24T03:04:03.809Z,61.10
2019-01-24T03:05:08.352Z,61.10
2019-01-24T03:06:09.384Z,60.70
2019-01-24T03:07:10.407Z,60.70
2019-01-24T03:08:11.425Z,60.90
2019-01-24T03:09:12.449Z,61.20
2019-01-24T03:10:13.580Z,60.90
2019-01-24T03:11:14.608Z,61.20
2019-01-24T03:12:15.633Z,61.40
2019-01-24T03:13:16.669Z,61.00
2019-01-24T03:14:17.797Z,61.10
2019-01-24T03:15:20.835Z,61.00
2019-01-24T03:16:21.852Z,61.10
2019-01-24T03:17:22.882Z,61.20
2019-01-24T03:18:23.904Z,61.20
2019-01-24T03:19:25.028Z,60.80
2019-01-24T03:20:26.061Z,60.80
2019-01-24T03:21:27.084Z,60.90
2019-01-24T03:22:28.111Z,61.20
2019-01-24T03:23:29.129Z,61.30
2019-01-24T03:24:30.153Z,61.20
2019-01-24T03:25:31.322Z,61.30
2019-01-24T03:26:32.341Z,61.20
2019-01-24T03:27:33.360Z,61.80
2019-01-24T03:28:34.401Z,61.80
2019-01-24T03:29:35.430Z,61.60
2019-01-24T03:30:36.462Z,61.50
2019-01-24T03:31:37.481Z,61.70
2019-01-24T03:32:38.509Z,61.80
2019-01-24T03:33:39.530Z,62.00
2019-01-24T03:34:40.551Z,62.00
2019-01-24T03:35:41.582Z,62.50
2019-01-24T03:36:42.622Z,62.60
2019-01-24T03:37:43.657Z,62.90
2019-01-24T03:38:44.676Z,62.70
2019-01-24T03:39:45.696Z,62.90
2019-01-24T03:40:46.742Z,62.70
2019-01-24T03:41:47.765Z,62.60
2019-01-24T03:42:48.919Z,62.50
2019-01-24T03:43:50.020Z,62.50
2019-01-24T03:44:51.048Z,62.70
2019-01-24T03:45:52.132Z,62.90
2019-01-24T03:46:53.148Z,63.10
2019-01-24T03:47:54.198Z,62.70
2019-01-24T03:48:55.216Z,62.30
2019-01-24T03:49:56.256Z,62.30
2019-01-24T03:50:57.284Z,63.00
2019-01-24T03:51:58.311Z,62.20
2019-01-24T03:52:59.348Z,62.20
2019-01-24T03:54:00.372Z,61.80
2019-01-24T03:55:01.807Z,61.60
2019-01-24T03:56:02.945Z,62.20
2019-01-24T03:57:03.975Z,61.90
2019-01-24T03:58:05.003Z,61.50
2019-01-24T03:59:06.015Z,60.80
2019-01-24T04:00:10.841Z,61.20
2019-01-24T04:01:11.873Z,61.40
2019-01-24T04:02:12.892Z,61.80
2019-01-24T04:03:13.928Z,61.40
2019-01-24T04:04:14.964Z,61.90
2019-01-24T04:05:16.304Z,61.70
2019-01-24T04:06:17.349Z,61.20
2019-01-24T04:07:18.372Z,60.90
2019-01-24T04:08:19.412Z,61.20
2019-01-24T04:09:20.423Z,61.10
2019-01-24T04:10:21.560Z,61.30
2019-01-24T04:11:22.604Z,61.30
2019-01-24T04:12:23.632Z,61.60
2019-01-24T04:13:24.665Z,61.50
2019-01-24T04:14:25.689Z,61.90
2019-01-24T04:15:26.704Z,62.00
2019-01-24T04:16:27.748Z,62.00
2019-01-24T04:17:28.786Z,61.70
2019-01-24T04:18:29.841Z,61.20
2019-01-24T04:19:30.879Z,61.70
2019-01-24T04:20:31.915Z,61.20
2019-01-24T04:21:32.948Z,61.70
2019-01-24T04:22:33.988Z,61.10
2019-01-24T04:23:35.004Z,61.40
2019-01-24T04:24:36.038Z,61.00
2019-01-24T04:25:37.067Z,61.60
2019-01-24T04:26:38.159Z,61.40
2019-01-24T04:27:39.241Z,61.20
2019-01-24T04:28:40.264Z,61.70
2019-01-24T04:29:41.288Z,61.70
2019-01-24T04:30:42.419Z,61.80
2019-01-24T04:31:43.461Z,62.00
2019-01-24T04:32:44.485Z,61.70
2019-01-24T04:33:45.515Z,61.80
2019-01-24T04:34:46.519Z,62.00
2019-01-24T04:35:47.745Z,62.10
2019-01-24T04:36:48.782Z,62.40
2019-01-24T04:37:49.807Z,63.30
2019-01-24T04:38:50.832Z,62.50
2019-01-24T04:39:51.865Z,62.30
2019-01-24T04:40:52.893Z,62.50
2019-01-24T04:41:53.928Z,62.40
2019-01-24T04:42:54.953Z,62.20
2019-01-24T04:43:55.971Z,62.60
2019-01-24T04:44:57.003Z,61.90
2019-01-24T04:45:58.024Z,62.20
2019-01-24T04:46:59.055Z,62.10
2019-01-24T04:48:00.080Z,61.70
2019-01-24T04:49:01.128Z,61.30
2019-01-24T04:50:05.153Z,61.50
2019-01-24T04:51:06.206Z,61.30
2019-01-24T04:52:07.235Z,62.10
2019-01-24T04:53:08.299Z,61.80
2019-01-24T04:54:09.396Z,61.90
2019-01-24T04:55:15.308Z,61.80
2019-01-24T04:56:16.345Z,61.70
2019-01-24T04:57:17.411Z,61.30
2019-01-24T04:58:18.454Z,62.20
2019-01-24T04:59:19.486Z,61.60
2019-01-24T05:00:24.322Z,61.40
2019-01-24T05:01:25.364Z,61.10
2019-01-24T05:02:26.392Z,61.30
2019-01-24T05:03:27.434Z,61.20
2019-01-24T05:04:28.485Z,61.30
2019-01-24T05:05:29.588Z,61.50
2019-01-24T05:06:30.633Z,61.30
2019-01-24T05:07:31.675Z,61.50
2019-01-24T05:08:32.685Z,61.20
2019-01-24T05:09:33.712Z,61.60
2019-01-24T05:10:34.743Z,61.60
2019-01-24T05:11:35.774Z,61.40
2019-01-24T05:12:36.791Z,61.50
2019-01-24T05:13:37.824Z,62.00
2019-01-24T05:14:38.861Z,62.10
2019-01-24T05:15:40.017Z,62.00
2019-01-24T05:16:41.054Z,62.00
2019-01-24T05:17:42.078Z,61.70
2019-01-24T05:18:43.079Z,62.30
2019-01-24T05:19:44.112Z,62.20
2019-01-24T05:20:45.144Z,61.60
2019-01-24T05:21:46.176Z,61.50
2019-01-24T05:22:47.203Z,61.90
2019-01-24T05:23:48.236Z,61.80
2019-01-24T05:24:49.272Z,62.10
2019-01-24T05:25:50.304Z,62.30
2019-01-24T05:26:51.329Z,62.60
2019-01-24T05:27:52.401Z,62.50
2019-01-24T05:28:53.421Z,62.30
2019-01-24T05:29:54.451Z,62.10
2019-01-24T05:30:55.471Z,62.20
2019-01-24T05:31:56.504Z,62.20
2019-01-24T05:32:57.535Z,62.00
2019-01-24T05:33:58.563Z,61.90
2019-01-24T05:34:59.583Z,61.70
2019-01-24T05:36:00.614Z,61.70
2019-01-24T05:37:01.657Z,61.90
2019-01-24T05:38:02.791Z,61.30
2019-01-24T05:39:05.716Z,61.70
2019-01-24T05:40:07.648Z,62.10
2019-01-24T05:41:08.668Z,62.00
2019-01-24T05:42:10.006Z,62.30
2019-01-24T05:43:11.017Z,62.60
2019-01-24T05:44:12.047Z,63.20
2019-01-24T05:45:13.584Z,62.40
2019-01-24T05:46:14.617Z,62.40
2019-01-24T05:47:15.668Z,62.40
2019-01-24T05:48:16.731Z,62.30
2019-01-24T05:49:17.825Z,62.40
2019-01-24T05:50:18.853Z,62.10
2019-01-24T05:51:19.887Z,62.20
2019-01-24T05:52:20.916Z,62.20
2019-01-24T05:53:21.954Z,62.60
2019-01-24T05:54:22.997Z,62.20
2019-01-24T05:55:24.017Z,62.20
2019-01-24T05:56:25.040Z,62.50
2019-01-24T05:57:26.097Z,62.00
2019-01-24T05:58:27.113Z,62.00
2019-01-24T05:59:28.136Z,61.90
2019-01-24T06:00:33.624Z,62.10
2019-01-24T06:01:35.044Z,62.30
2019-01-24T06:02:36.072Z,62.40
2019-01-24T06:03:37.101Z,61.80
2019-01-24T06:04:38.131Z,61.70
2019-01-24T06:05:41.838Z,62.00
2019-01-24T06:06:42.066Z,61.90
2019-01-24T06:07:43.209Z,61.90
2019-01-24T06:08:44.220Z,61.80
2019-01-24T06:09:45.238Z,61.50
2019-01-24T06:10:46.254Z,61.40
2019-01-24T06:11:47.279Z,61.30
2019-01-24T06:12:48.310Z,61.30
2019-01-24T06:13:49.338Z,61.40
2019-01-24T06:14:50.361Z,61.60
2019-01-24T06:15:51.420Z,62.00
2019-01-24T06:16:52.459Z,61.80
2019-01-24T06:17:53.504Z,61.80
2019-01-24T06:18:54.532Z,61.70
2019-01-24T06:19:55.565Z,61.80
2019-01-24T06:20:56.602Z,61.60
2019-01-24T06:21:57.628Z,62.00
2019-01-24T06:22:58.677Z,61.70
2019-01-24T06:23:59.697Z,61.80
2019-01-24T06:25:00.717Z,62.00
2019-01-24T06:26:01.825Z,61.80
2019-01-24T06:27:02.852Z,61.70
2019-01-24T06:28:03.884Z,61.80
2019-01-24T06:29:04.904Z,61.90
2019-01-24T06:30:09.746Z,62.00
2019-01-24T06:31:10.767Z,62.50
2019-01-24T06:32:11.856Z,62.10
2019-01-24T06:33:12.912Z,62.00
2019-01-24T06:34:13.945Z,62.10
2019-01-24T06:35:14.968Z,62.30
2019-01-24T06:36:15.993Z,62.50
2019-01-24T06:37:17.024Z,62.90
2019-01-24T06:38:18.057Z,62.70
2019-01-24T06:39:19.063Z,62.60
2019-01-24T06:40:20.085Z,62.10
2019-01-24T06:41:21.104Z,61.80
2019-01-24T06:42:22.125Z,62.00
2019-01-24T06:43:23.164Z,62.20
2019-01-24T06:44:24.216Z,62.00
2019-01-24T06:45:25.425Z,62.10
2019-01-24T06:46:26.439Z,62.10
2019-01-24T06:47:27.474Z,62.30
2019-01-24T06:48:28.515Z,62.30
2019-01-24T06:49:29.551Z,62.10
2019-01-24T06:50:30.560Z,61.90
2019-01-24T06:51:31.599Z,62.20
2019-01-24T06:52:32.621Z,62.20
2019-01-24T06:53:33.668Z,61.60
2019-01-24T06:54:34.697Z,61.50
2019-01-24T06:55:35.715Z,61.60
2019-01-24T06:56:36.732Z,61.50
2019-01-24T06:57:37.770Z,61.60
2019-01-24T06:58:38.798Z,61.60
2019-01-24T06:59:39.825Z,61.30
2019-01-24T07:00:40.833Z,61.50
2019-01-24T07:01:41.852Z,61.60
2019-01-24T07:02:42.905Z,61.60
2019-01-24T07:03:43.932Z,62.30
2019-01-24T07:04:44.981Z,61.70
2019-01-24T07:05:46.007Z,61.30
2019-01-24T07:06:47.055Z,61.50
2019-01-24T07:07:48.170Z,61.10
2019-01-24T07:08:49.201Z,60.90
2019-01-24T07:09:50.220Z,61.00
2019-01-24T07:10:51.297Z,61.40
2019-01-24T07:11:52.373Z,60.90
2019-01-24T07:12:53.527Z,61.00
2019-01-24T07:13:54.565Z,61.00
2019-01-24T07:14:55.590Z,60.60
2019-01-24T07:15:56.616Z,60.80
2019-01-24T07:16:57.635Z,60.80
2019-01-24T07:17:58.657Z,60.90
2019-01-24T07:18:59.680Z,61.10
2019-01-24T07:20:00.704Z,60.40
2019-01-24T07:21:01.838Z,60.40
2019-01-24T07:22:02.860Z,60.00
2019-01-24T07:23:03.886Z,60.40
2019-01-24T07:24:04.913Z,60.80
2019-01-24T07:25:09.435Z,60.70
2019-01-24T07:26:10.598Z,60.10
2019-01-24T07:27:11.696Z,60.60
2019-01-24T07:28:12.754Z,61.20
2019-01-24T07:29:13.788Z,60.10
2019-01-24T07:30:16.204Z,60.40
2019-01-24T07:31:17.218Z,60.60
2019-01-24T07:32:18.235Z,60.80
2019-01-24T07:33:19.281Z,61.20
2019-01-24T07:34:20.298Z,61.10
2019-01-24T07:35:21.326Z,60.90
2019-01-24T07:36:22.361Z,60.80
2019-01-24T07:37:23.371Z,60.40
2019-01-24T07:38:24.424Z,60.00
2019-01-24T07:39:25.457Z,59.80
2019-01-24T07:40:26.595Z,59.90
2019-01-24T07:41:30.116Z,60.00
2019-01-24T07:42:31.141Z,59.80
2019-01-24T07:43:32.172Z,60.00
2019-01-24T07:44:33.188Z,60.00
2019-01-24T07:45:36.618Z,60.00
2019-01-24T07:46:37.672Z,60.00
2019-01-24T07:47:38.709Z,60.00
2019-01-24T07:48:39.738Z,60.00
2019-01-24T07:49:41.151Z,60.10
2019-01-24T07:50:42.191Z,60.10
2019-01-24T07:51:43.218Z,60.30
2019-01-24T07:52:44.354Z,60.00
2019-01-24T07:53:45.412Z,60.30
2019-01-24T07:54:46.440Z,61.10
2019-01-24T07:55:47.473Z,60.30
2019-01-24T07:56:48.503Z,60.50
2019-01-24T07:57:49.633Z,60.70
2019-01-24T07:58:50.667Z,60.40
2019-01-24T07:59:51.696Z,60.70
2019-01-24T08:00:52.724Z,60.30
2019-01-24T08:01:53.758Z,60.20
2019-01-24T08:02:55.112Z,60.10
2019-01-24T08:03:56.235Z,59.90
2019-01-24T08:04:57.268Z,60.00
2019-01-24T08:05:58.323Z,59.70
2019-01-24T08:06:59.333Z,60.30
2019-01-24T08:08:00.368Z,60.00
2019-01-24T08:09:01.399Z,60.00
2019-01-24T08:10:05.726Z,60.00
2019-01-24T08:11:06.760Z,59.90
2019-01-24T08:12:07.777Z,59.70
2019-01-24T08:13:08.817Z,59.70
2019-01-24T08:14:09.854Z,59.80
2019-01-24T08:15:13.377Z,59.40
2019-01-24T08:16:14.413Z,59.20
2019-01-24T08:17:15.464Z,59.10
2019-01-24T08:18:16.504Z,59.00
2019-01-24T08:19:17.514Z,59.40
2019-01-24T08:20:23.196Z,59.50
2019-01-24T08:21:24.210Z,59.60
2019-01-24T08:22:25.260Z,60.10
2019-01-24T08:23:26.293Z,59.80
2019-01-24T08:24:27.348Z,60.00
2019-01-24T08:25:28.464Z,60.00
2019-01-24T08:26:29.497Z,60.30
2019-01-24T08:27:30.524Z,60.40
2019-01-24T08:28:31.554Z,60.20
2019-01-24T08:29:32.576Z,59.90
2019-01-24T08:30:33.602Z,59.70
2019-01-24T08:31:34.620Z,59.60
2019-01-24T08:32:35.642Z,59.60
2019-01-24T08:33:36.680Z,59.80
2019-01-24T08:34:37.716Z,60.00
2019-01-24T08:35:38.733Z,60.00
2019-01-24T08:36:39.760Z,59.90
2019-01-24T08:37:40.798Z,59.80
2019-01-24T08:38:41.829Z,59.50
2019-01-24T08:39:42.876Z,59.50
2019-01-24T08:40:43.888Z,59.40
2019-01-24T08:41:44.916Z,59.40
2019-01-24T08:42:46.123Z,59.60
2019-01-24T08:43:47.205Z,60.00
2019-01-24T08:44:48.241Z,59.80
2019-01-24T08:45:49.268Z,59.40
2019-01-24T08:46:50.305Z,59.40
2019-01-24T08:47:51.359Z,58.90
2019-01-24T08:48:52.828Z,59.40
2019-01-24T08:49:53.928Z,59.50
2019-01-24T08:50:55.022Z,59.70
2019-01-24T08:51:56.065Z,59.50
2019-01-24T08:52:57.094Z,59.50
2019-01-24T08:53:58.112Z,59.70
2019-01-24T08:54:59.144Z,59.50
2019-01-24T08:56:00.172Z,60.00
2019-01-24T08:57:01.209Z,59.60
2019-01-24T08:58:03.438Z,59.60
2019-01-24T08:59:04.460Z,59.70
2019-01-24T09:00:09.329Z,59.80
2019-01-24T09:01:10.336Z,59.40
2019-01-24T09:02:11.368Z,58.80
2019-01-24T09:03:12.693Z,59.20
2019-01-24T09:04:13.708Z,59.20
2019-01-24T09:05:14.941Z,58.90
2019-01-24T09:06:22.360Z,58.80
2019-01-24T09:07:18.884Z,58.00
2019-01-24T09:08:19.915Z,58.50
2019-01-24T09:09:20.948Z,58.00
2019-01-24T09:10:33.407Z,58.00
2019-01-24T09:11:34.424Z,57.90
2019-01-24T09:12:35.456Z,58.00
2019-01-24T09:13:36.502Z,59.10
2019-01-24T09:14:37.550Z,58.80
2019-01-24T09:15:38.583Z,59.10
2019-01-24T09:16:39.613Z,59.40
2019-01-24T09:17:40.645Z,58.90
2019-01-24T09:18:41.664Z,58.70
2019-01-24T09:19:42.705Z,58.90
2019-01-24T09:20:43.736Z,58.70
2019-01-24T09:21:44.762Z,58.80
2019-01-24T09:22:46.197Z,58.80
2019-01-24T09:23:47.228Z,58.40
2019-01-24T09:24:48.295Z,58.70
2019-01-24T09:25:49.297Z,58.00
2019-01-24T09:26:50.332Z,57.70
2019-01-24T09:27:51.357Z,58.50
2019-01-24T09:28:52.389Z,58.10
2019-01-24T09:29:53.440Z,58.10
2019-01-24T09:30:54.457Z,58.50
2019-01-24T09:31:55.484Z,58.20
2019-01-24T09:32:56.522Z,58.00
2019-01-24T09:33:57.552Z,57.80
2019-01-24T09:34:58.628Z,57.70
2019-01-24T09:35:59.652Z,57.90
2019-01-24T09:37:00.677Z,58.40
2019-01-24T09:38:01.710Z,57.50
2019-01-24T09:39:05.758Z,57.60
2019-01-24T09:40:09.916Z,57.50
2019-01-24T09:41:10.983Z,57.50
2019-01-24T09:42:12.102Z,57.40
2019-01-24T09:43:13.132Z,57.70
2019-01-24T09:44:14.152Z,57.70
2019-01-24T09:45:23.900Z,57.80
2019-01-24T09:46:24.925Z,58.00
2019-01-24T09:47:26.329Z,58.10
2019-01-24T09:48:28.255Z,58.00
2019-01-24T09:49:29.292Z,58.00
2019-01-24T09:50:30.319Z,57.50
2019-01-24T09:51:31.366Z,57.40
2019-01-24T09:52:32.400Z,57.80
2019-01-24T09:53:33.426Z,57.80
2019-01-24T09:54:34.714Z,57.60
2019-01-24T09:55:35.756Z,57.20
2019-01-24T09:56:36.812Z,57.20
2019-01-24T09:57:37.840Z,57.00
2019-01-24T09:58:38.897Z,57.00
2019-01-24T09:59:39.981Z,57.50
2019-01-24T10:00:41.014Z,58.00
2019-01-24T10:01:42.035Z,58.00
2019-01-24T10:02:43.067Z,57.40
2019-01-24T10:03:44.208Z,57.20
2019-01-24T10:04:45.234Z,57.80
2019-01-24T10:05:46.372Z,57.80
2019-01-24T10:06:47.424Z,57.30
2019-01-24T10:07:48.553Z,57.70
2019-01-24T10:08:49.583Z,57.10
2019-01-24T10:09:50.599Z,57.30
2019-01-24T10:10:51.645Z,56.80
2019-01-24T10:11:52.677Z,57.30
2019-01-24T10:12:54.610Z,57.60
2019-01-24T10:13:55.641Z,57.90
2019-01-24T10:14:56.661Z,58.30
2019-01-24T10:15:57.730Z,58.60
2019-01-24T10:16:58.831Z,58.90
2019-01-24T10:17:59.842Z,59.00
2019-01-24T10:19:00.877Z,59.00
2019-01-24T10:20:03.795Z,59.00
2019-01-24T10:21:04.876Z,59.10
2019-01-24T10:22:05.962Z,59.00
2019-01-24T10:23:06.984Z,59.00
2019-01-24T10:24:08.004Z,59.10
2019-01-24T10:25:15.589Z,58.20
2019-01-24T10:26:16.676Z,58.20
2019-01-24T10:27:17.702Z,58.20
2019-01-24T10:28:18.760Z,58.20
2019-01-24T10:29:19.866Z,58.50
2019-01-24T10:30:22.787Z,58.80
2019-01-24T10:31:23.815Z,59.00
2019-01-24T10:32:24.853Z,58.30
2019-01-24T10:33:25.893Z,58.70
2019-01-24T10:34:26.925Z,59.00
2019-01-24T10:35:27.931Z,59.20
2019-01-24T10:36:28.976Z,59.40
2019-01-24T10:37:29.984Z,59.50
2019-01-24T10:38:31.016Z,58.90
2019-01-24T10:39:32.061Z,58.80
2019-01-24T10:40:33.072Z,59.10
2019-01-24T10:41:34.226Z,59.40
2019-01-24T10:42:35.336Z,59.30
2019-01-24T10:43:36.368Z,58.70
2019-01-24T10:44:37.392Z,59.10
2019-01-24T10:45:38.403Z,58.90
2019-01-24T10:46:39.460Z,59.10
2019-01-24T10:47:40.592Z,58.10
2019-01-24T10:48:41.608Z,58.20
2019-01-24T10:49:42.643Z,58.10
2019-01-24T10:50:43.684Z,57.30
2019-01-24T10:51:44.724Z,57.00
2019-01-24T10:52:45.751Z,57.30
2019-01-24T10:53:46.804Z,57.40
2019-01-24T10:54:47.895Z,57.50
2019-01-24T10:55:48.916Z,57.60
2019-01-24T10:56:49.960Z,57.70
2019-01-24T10:57:52.115Z,57.90
2019-01-24T10:58:53.140Z,57.10
2019-01-24T10:59:54.165Z,56.80
2019-01-24T11:00:55.193Z,56.60
2019-01-24T11:01:56.217Z,56.60
2019-01-24T11:02:57.238Z,56.60
2019-01-24T11:03:58.260Z,57.00
2019-01-24T11:04:59.297Z,56.60
2019-01-24T11:06:00.318Z,56.50
2019-01-24T11:07:01.341Z,56.50
2019-01-24T11:08:03.174Z,56.50
2019-01-24T11:09:07.002Z,56.50
2019-01-24T11:10:10.236Z,56.40
2019-01-24T11:11:11.365Z,56.90
2019-01-24T11:12:12.405Z,55.70
2019-01-24T11:13:13.424Z,56.00
2019-01-24T11:14:14.456Z,55.50
2019-01-24T11:15:17.878Z,55.80
2019-01-24T11:16:18.902Z,55.30
2019-01-24T11:17:19.919Z,55.30
2019-01-24T11:18:20.943Z,55.30
2019-01-24T11:19:21.987Z,55.10
2019-01-24T11:20:23.009Z,55.80
2019-01-24T11:21:24.047Z,55.80
2019-01-24T11:22:25.072Z,54.20
2019-01-24T11:23:26.105Z,55.10
2019-01-24T11:24:27.139Z,55.40
2019-01-24T11:25:28.170Z,55.60
2019-01-24T11:26:29.205Z,55.80
2019-01-24T11:27:30.257Z,55.40
2019-01-24T11:28:31.265Z,55.10
2019-01-24T11:29:32.293Z,55.00
2019-01-24T11:30:33.633Z,55.10
2019-01-24T11:31:34.648Z,55.10
2019-01-24T11:32:35.785Z,55.00
2019-01-24T11:33:36.801Z,54.70
2019-01-24T11:34:37.839Z,54.90
2019-01-24T11:35:38.843Z,54.80
2019-01-24T11:36:39.967Z,54.50
2019-01-24T11:37:40.992Z,54.70
2019-01-24T11:38:42.013Z,55.10
2019-01-24T11:39:43.029Z,54.70
2019-01-24T11:40:44.240Z,54.70
2019-01-24T11:41:45.286Z,54.00
2019-01-24T11:42:46.430Z,53.90
2019-01-24T11:43:47.441Z,54.70
2019-01-24T11:44:48.464Z,54.00
2019-01-24T11:45:49.497Z,54.40
2019-01-24T11:46:50.523Z,54.20
2019-01-24T11:47:51.555Z,54.20
2019-01-24T11:48:52.600Z,54.20
2019-01-24T11:49:53.616Z,54.00
2019-01-24T11:50:54.647Z,53.60
2019-01-24T11:51:55.677Z,54.10
2019-01-24T11:52:57.009Z,55.00
2019-01-24T11:53:58.023Z,55.10
2019-01-24T11:54:59.062Z,55.10
2019-01-24T11:56:00.092Z,54.80
2019-01-24T11:57:01.114Z,54.70
2019-01-24T11:58:03.082Z,54.60
2019-01-24T11:59:04.109Z,55.00
2019-01-24T12:00:16.939Z,54.90
2019-01-24T12:01:20.019Z,54.30
2019-01-24T12:02:20.880Z,54.40
2019-01-24T12:03:21.996Z,54.50
2019-01-24T12:04:23.071Z,54.70
2019-01-24T12:05:24.302Z,54.60
2019-01-24T12:06:25.330Z,54.20
2019-01-24T12:07:26.360Z,54.60
2019-01-24T12:08:27.384Z,54.10
2019-01-24T12:09:28.389Z,54.40
2019-01-24T12:10:29.616Z,54.10
2019-01-24T12:11:30.645Z,54.40
2019-01-24T12:12:31.672Z,54.30
2019-01-24T12:13:32.705Z,54.00
2019-01-24T12:14:33.732Z,54.50
2019-01-24T12:15:34.751Z,54.50
2019-01-24T12:16:35.806Z,54.50
2019-01-24T12:17:36.833Z,54.30
2019-01-24T12:18:37.860Z,54.20
2019-01-24T12:19:38.867Z,54.10
2019-01-24T12:20:39.897Z,54.20
2019-01-24T12:21:40.918Z,54.20
2019-01-24T12:22:41.968Z,54.50
2019-01-24T12:23:42.998Z,53.90
2019-01-24T12:24:44.007Z,53.90
2019-01-24T12:25:45.017Z,53.80
2019-01-24T12:26:46.045Z,54.00
2019-01-24T12:27:47.201Z,53.80
2019-01-24T12:28:48.234Z,53.80
2019-01-24T12:29:49.265Z,54.40
2019-01-24T12:30:50.280Z,54.50
2019-01-24T12:31:51.320Z,55.10
2019-01-24T12:32:52.452Z,55.40
2019-01-24T12:33:53.479Z,55.20
2019-01-24T12:34:54.512Z,54.80
2019-01-24T12:35:55.544Z,54.70
2019-01-24T12:36:56.576Z,54.40
2019-01-24T12:37:57.634Z,55.20
2019-01-24T12:38:58.657Z,55.20
2019-01-24T12:39:59.705Z,54.80
2019-01-24T12:41:00.735Z,55.20
2019-01-24T12:42:01.732Z,55.70
2019-01-24T12:43:03.272Z,55.20
2019-01-24T12:44:04.301Z,55.20
2019-01-24T12:45:14.764Z,55.10
2019-01-24T12:46:15.794Z,55.60
2019-01-24T12:47:16.825Z,55.10
2019-01-24T12:48:17.857Z,55.10
2019-01-24T12:49:18.896Z,54.90
2019-01-24T12:50:19.928Z,55.00
2019-01-24T12:51:20.949Z,55.30
2019-01-24T12:52:21.988Z,55.10
2019-01-24T12:53:23.020Z,55.40
2019-01-24T12:54:24.054Z,55.10
2019-01-24T12:55:25.272Z,55.10
2019-01-24T12:56:26.306Z,54.90
2019-01-24T12:57:27.335Z,54.80
2019-01-24T12:58:28.368Z,55.60
2019-01-24T12:59:29.408Z,54.60
2019-01-24T13:00:32.728Z,55.00
2019-01-24T13:01:33.746Z,55.10
2019-01-24T13:02:34.792Z,56.00
2019-01-24T13:03:35.812Z,55.60
2019-01-24T13:04:36.841Z,55.80
2019-01-24T13:05:37.868Z,56.10
2019-01-24T13:06:38.877Z,56.20
2019-01-24T13:07:39.916Z,55.70
2019-01-24T13:08:41.179Z,55.50